Time;durP1;ratioP1;P1;durP2;ratioP2;P2;SDS_P1;SDS_P2;PMS_P1;PMS_P2;Temp;Humidity;BMP_temperature;BMP_pressure;BME280_temperature;BME280_humidity;BME280_pressure;Samples;Min_cycle;Max_cycle;Signal;HPM_P1;HPM_P2
2022/03/07 00:00:35;;;;;;;2.78;1.80;;;;;;;-3.34;63.55;100124.16;5025388;28;20061;-50
2022/03/07 00:03:06;;;;;;;3.70;1.90;;;;;;;-4.10;63.65;99992.75;5025260;28;20332;-53
2022/03/07 00:05:37;;;;;;;1.88;1.60;;;;;;;-3.40;63.11;100126.44;5025357;28;20046;-50
2022/03/07 00:08:08;;;;;;;7.03;2.03;;;;;;;-3.61;63.54;100114.63;5024833;28;20062;-50
2022/03/07 00:10:59;;;;;;;4.25;2.10;;;;;;;-3.49;64.15;100138.06;5025225;28;20049;-52
2022/03/07 00:13:31;;;;;;;3.90;2.17;;;;;;;-3.53;64.18;100126.00;5024967;28;20085;-51
2022/03/07 00:16:03;;;;;;;4.82;2.00;;;;;;;-3.39;64.73;100133.31;5025144;28;20045;-50
2022/03/07 00:18:34;;;;;;;2.63;1.92;;;;;;;-3.23;64.48;100143.28;5025056;28;20060;-53
2022/03/07 00:21:08;;;;;;;3.05;1.88;;;;;;;-3.18;63.70;100143.47;5025185;28;20064;-52
2022/03/07 00:23:39;;;;;;;4.10;1.80;;;;;;;-3.12;63.04;100139.44;5024947;28;20045;-53
2022/03/07 00:26:10;;;;;;;5.30;2.20;;;;;;;-3.06;63.01;100144.78;5024799;28;20059;-54
2022/03/07 00:28:42;;;;;;;3.45;2.50;;;;;;;-3.07;63.24;100112.38;5024712;28;20068;-52
2022/03/07 00:31:14;;;;;;;3.30;2.25;;;;;;;-2.78;62.46;100145.75;5025297;28;20339;-50
2022/03/07 00:33:45;;;;;;;6.97;2.22;;;;;;;-2.76;62.61;100144.13;5024876;28;20177;-54
2022/03/07 00:36:17;;;;;;;7.60;3.30;;;;;;;-2.56;62.21;100141.41;5025167;28;20288;-54
2022/03/07 00:38:48;;;;;;;5.50;2.45;;;;;;;-2.42;62.04;100135.03;5025374;28;20045;-54
2022/03/07 00:41:18;;;;;;;8.43;2.40;;;;;;;-2.21;61.80;100146.00;5024580;28;20056;-53
2022/03/07 00:43:51;;;;;;;6.57;2.45;;;;;;;-2.08;60.38;100133.59;5024696;28;20116;-50
2022/03/07 00:46:21;;;;;;;2.15;1.75;;;;;;;-1.93;60.15;100130.66;5024037;28;20327;-56
2022/03/07 00:48:52;;;;;;;3.83;2.10;;;;;;;-1.84;60.27;100131.84;5024515;28;20053;-51
2022/03/07 00:51:25;;;;;;;2.88;2.22;;;;;;;-1.83;59.52;100125.88;5024850;28;20041;-53
2022/03/07 00:53:56;;;;;;;2.45;1.73;;;;;;;-1.72;59.35;100144.16;5024136;28;20093;-53
2022/03/07 00:56:26;;;;;;;5.00;2.10;;;;;;;-1.82;58.54;100129.31;5024328;28;20045;-54
2022/03/07 00:58:59;;;;;;;4.50;2.40;;;;;;;-1.71;58.33;100145.03;5024338;28;20053;-52
2022/03/07 01:01:30;;;;;;;4.70;2.22;;;;;;;-1.60;58.57;100146.22;5024391;28;20041;-53
2022/03/07 01:04:01;;;;;;;2.88;1.85;;;;;;;-1.43;58.31;100152.72;5024261;28;20108;-54
2022/03/07 01:06:31;;;;;;;3.47;1.92;;;;;;;-1.24;57.44;100155.84;5024278;28;20100;-54
2022/03/07 01:09:02;;;;;;;2.53;2.33;;;;;;;-1.43;57.00;100160.41;5023150;28;20069;-54
2022/03/07 01:11:32;;;;;;;3.60;2.10;;;;;;;-1.56;58.44;100158.31;5023759;28;20358;-54
2022/03/07 01:14:05;;;;;;;5.75;2.97;;;;;;;-1.62;57.75;100158.09;5023784;28;20243;-53
2022/03/07 01:16:35;;;;;;;3.17;1.80;;;;;;;-1.49;57.55;100149.97;5023892;28;20046;-55
2022/03/07 01:19:06;;;;;;;4.43;2.17;;;;;;;-1.54;57.12;100103.72;5024114;28;20046;-57
2022/03/07 01:21:39;;;;;;;6.57;2.40;;;;;;;-1.19;57.07;100155.16;5024104;28;20042;-54
2022/03/07 01:24:09;;;;;;;3.78;1.65;;;;;;;-1.00;56.75;100153.09;5024012;28;20084;-54
2022/03/07 01:26:40;;;;;;;3.00;1.73;;;;;;;-0.92;55.96;100139.69;5023911;28;20077;-54
2022/03/07 01:29:12;;;;;;;2.63;1.85;;;;;;;-0.83;55.82;100148.44;5027303;28;20064;-53
2022/03/07 01:31:43;;;;;;;4.88;1.75;;;;;;;-0.64;56.35;100148.13;5027952;28;20356;-52
2022/03/07 01:34:14;;;;;;;1.98;1.63;;;;;;;-0.64;55.10;100145.56;5028161;28;20221;-51
2022/03/07 01:36:44;;;;;;;2.65;1.83;;;;;;;-0.76;55.27;100142.66;5027734;28;20311;-53
2022/03/07 01:39:15;;;;;;;5.03;1.73;;;;;;;-0.64;55.42;100145.56;5027860;28;20109;-54
2022/03/07 01:41:45;;;;;;;4.90;1.90;;;;;;;-0.68;55.55;100133.47;5028328;28;20126;-53
2022/03/07 01:44:23;;;;;;;2.75;1.80;;;;;;;-0.68;55.25;100133.47;5028088;28;20053;-54
2022/03/07 01:46:55;;;;;;;7.13;2.00;;;;;;;-0.66;55.60;100136.94;5028011;28;20443;-55
2022/03/07 01:49:29;;;;;;;5.63;1.63;;;;;;;-0.54;54.66;100127.00;5027543;28;20057;-54
2022/03/07 01:52:01;;;;;;;4.60;1.63;;;;;;;-0.50;54.09;100138.22;5027735;28;20264;-54
2022/03/07 01:54:32;;;;;;;1.90;1.40;;;;;;;-0.80;54.76;100133.13;5027908;28;20243;-54
2022/03/07 01:57:03;;;;;;;2.72;1.55;;;;;;;-0.92;54.79;100116.59;5027706;28;20285;-55
2022/03/07 01:59:37;;;;;;;7.60;1.80;;;;;;;-0.80;55.27;100128.00;5027729;28;20124;-55
2022/03/07 02:02:07;;;;;;;3.88;1.67;;;;;;;-0.18;55.35;100126.19;5027579;28;20116;-55
2022/03/07 02:04:41;;;;;;;5.75;1.70;;;;;;;-0.09;53.70;100134.13;5027577;28;20064;-54
2022/03/07 02:07:11;;;;;;;7.35;2.20;;;;;;;-0.61;53.48;100009.63;5027682;28;20066;-55
2022/03/07 02:09:42;;;;;;;4.60;1.85;;;;;;;0.36;52.92;100130.91;5027374;28;20128;-54
2022/03/07 02:12:13;;;;;;;6.60;1.65;;;;;;;0.33;52.15;100120.56;5027481;28;20073;-54
2022/03/07 02:14:45;;;;;;;3.28;1.50;;;;;;;0.14;52.15;100123.53;5027394;28;20059;-53
2022/03/07 02:17:16;;;;;;;6.03;1.90;;;;;;;0.02;52.97;100125.81;5027631;28;20393;-54
2022/03/07 02:19:47;;;;;;;3.60;1.50;;;;;;;-0.19;52.67;100128.75;5027715;28;20219;-55
2022/03/07 02:22:19;;;;;;;3.30;1.35;;;;;;;-0.75;53.10;100028.94;5027563;28;20084;-52
2022/03/07 02:24:50;;;;;;;3.10;1.48;;;;;;;-0.11;53.34;100125.53;5027314;28;20065;-55
2022/03/07 02:27:21;;;;;;;4.95;1.90;;;;;;;-0.10;53.79;100113.53;5027232;28;20276;-54
2022/03/07 02:29:52;;;;;;;3.35;1.58;;;;;;;-0.02;52.92;100118.06;5026999;28;20383;-55
2022/03/07 02:32:23;;;;;;;2.15;1.50;;;;;;;0.19;53.08;100121.94;5027254;28;20072;-53
2022/03/07 02:34:54;;;;;;;4.57;1.90;;;;;;;0.31;53.30;100117.09;5027312;28;20328;-56
2022/03/07 02:37:26;;;;;;;5.07;2.03;;;;;;;0.11;53.96;100113.22;5026882;28;20288;-54
2022/03/07 02:39:57;;;;;;;3.75;1.88;;;;;;;-0.01;53.94;100119.78;5026805;28;20053;-53
2022/03/07 02:42:39;;;;;;;2.60;1.58;;;;;;;-0.11;53.33;100107.53;5026098;28;20251;-54
2022/03/07 02:45:11;;;;;;;5.43;1.85;;;;;;;-0.19;54.46;100106.50;5026688;28;20077;-55
2022/03/07 02:47:41;;;;;;;1.95;1.48;;;;;;;-0.18;54.20;100105.66;5026842;28;20060;-53
2022/03/07 02:50:12;;;;;;;3.03;1.60;;;;;;;-0.17;53.71;100096.28;5026943;28;20374;-54
2022/03/07 02:52:44;;;;;;;3.40;1.92;;;;;;;-0.25;55.24;100098.63;5026770;28;20084;-54
2022/03/07 02:55:15;;;;;;;3.33;1.80;;;;;;;-0.20;54.81;100086.81;5026179;28;20045;-56
2022/03/07 02:57:48;;;;;;;5.28;2.33;;;;;;;-0.19;54.30;100088.53;5026405;28;20054;-53
2022/03/07 03:00:19;;;;;;;7.18;2.67;;;;;;;-0.24;55.13;100088.41;5026171;28;20103;-54
2022/03/07 03:02:50;;;;;;;7.97;2.47;;;;;;;-0.33;55.27;100084.75;5026758;28;20091;-54
2022/03/07 03:05:21;;;;;;;3.60;1.85;;;;;;;-0.29;55.75;100086.56;5026676;28;20062;-54
2022/03/07 03:07:53;;;;;;;4.40;1.80;;;;;;;-0.27;56.12;100079.78;5026456;28;20109;-55
2022/03/07 03:10:24;;;;;;;3.65;1.52;;;;;;;-0.29;56.24;100086.56;5026060;28;20065;-54
2022/03/07 03:12:55;;;;;;;10.05;3.15;;;;;;;-0.30;55.51;100070.31;5026208;28;20041;-54
2022/03/07 03:15:25;;;;;;;5.70;2.47;;;;;;;-0.39;55.01;100080.34;5025859;28;20121;-56
2022/03/07 03:17:56;;;;;;;4.95;1.80;;;;;;;-0.45;55.37;100068.22;5026353;28;20060;-55
2022/03/07 03:20:27;;;;;;;5.13;1.60;;;;;;;-0.32;55.06;100065.97;5026190;28;20116;-54
2022/03/07 03:22:59;;;;;;;2.42;1.50;;;;;;;-0.31;54.41;100067.69;5026207;28;20396;-54
2022/03/07 03:25:30;;;;;;;3.58;1.92;;;;;;;-0.55;54.65;100012.38;5026022;28;20379;-54
2022/03/07 03:28:00;;;;;;;2.22;1.50;;;;;;;-0.23;52.76;100055.88;5025887;28;20097;-54
2022/03/07 03:30:31;;;;;;;2.45;1.60;;;;;;;-0.11;52.71;100051.03;5026253;28;20060;-52
2022/03/07 03:33:02;;;;;;;4.53;1.73;;;;;;;-0.22;52.73;100047.38;5026197;28;20328;-52
2022/03/07 03:35:35;;;;;;;1.83;1.40;;;;;;;-0.25;52.53;100048.16;5025550;28;20362;-53
2022/03/07 03:38:09;;;;;;;3.72;1.52;;;;;;;-0.30;53.22;100033.47;5025597;28;20047;-52
2022/03/07 03:40:40;;;;;;;1.55;1.10;;;;;;;-0.10;50.27;100032.25;5025850;28;20107;-54
2022/03/07 03:43:10;;;;;;;2.33;1.65;;;;;;;0.00;51.61;100028.19;5025620;28;20248;-54
2022/03/07 03:45:41;;;;;;;2.28;1.30;;;;;;;-0.12;48.85;100013.38;5025534;28;20083;-53
2022/03/07 03:48:12;;;;;;;1.58;1.20;;;;;;;-0.14;48.64;100009.88;5025600;28;20117;-52
2022/03/07 03:50:42;;;;;;;1.75;1.40;;;;;;;-0.34;47.87;100003.44;5025012;28;20050;-55
2022/03/07 03:53:15;;;;;;;1.70;1.30;;;;;;;-0.32;48.72;99999.22;5025377;28;20143;-55
2022/03/07 03:55:45;;;;;;;1.98;1.20;;;;;;;-0.25;47.33;99954.84;5025696;28;20757;-54
2022/03/07 03:58:16;;;;;;;1.45;1.10;;;;;;;0.10;45.45;99998.41;5025599;28;20300;-54
2022/03/07 04:00:46;;;;;;;1.20;1.05;;;;;;;0.09;43.48;99996.69;5025098;28;20099;-53
2022/03/07 04:03:17;;;;;;;1.65;1.10;;;;;;;0.09;44.24;99996.69;5025219;28;20056;-53
2022/03/07 04:05:48;;;;;;;0.90;0.90;;;;;;;0.13;44.75;99990.78;5024807;28;20331;-55
2022/03/07 04:08:22;;;;;;;2.63;1.10;;;;;;;0.27;44.26;99996.19;5024770;28;20121;-54
2022/03/07 04:10:52;;;;;;;1.70;1.15;;;;;;;0.29;45.15;99990.25;5025649;28;20217;-55
2022/03/07 04:13:25;;;;;;;1.40;1.15;;;;;;;0.30;44.09;99981.72;5025165;28;20124;-55
2022/03/07 04:15:56;;;;;;;3.22;1.20;;;;;;;0.39;44.51;99981.91;5025103;28;20053;-53
2022/03/07 04:18:27;;;;;;;1.85;1.10;;;;;;;0.45;43.78;99981.19;5025514;28;20339;-53
2022/03/07 04:20:58;;;;;;;1.83;1.20;;;;;;;0.39;44.78;99951.06;5024936;28;20088;-54
2022/03/07 04:23:30;;;;;;;1.58;1.20;;;;;;;0.57;43.82;99980.53;5024711;28;20053;-54
2022/03/07 04:26:00;;;;;;;2.13;1.20;;;;;;;0.64;44.36;99987.53;5024888;28;20299;-54
2022/03/07 04:28:32;;;;;;;1.67;1.20;;;;;;;0.79;44.10;99987.81;5024838;28;20057;-52
2022/03/07 04:31:03;;;;;;;1.52;1.10;;;;;;;0.80;44.12;99948.41;5024813;28;20293;-55
2022/03/07 04:33:34;;;;;;;1.65;1.40;;;;;;;0.56;45.96;99959.09;5024511;28;20358;-55
2022/03/07 04:36:05;;;;;;;2.05;1.20;;;;;;;0.62;46.58;99973.75;5024764;28;20053;-54
2022/03/07 04:38:37;;;;;;;2.78;1.40;;;;;;;0.79;46.19;99971.50;5024578;28;20117;-54
2022/03/07 04:41:08;;;;;;;2.47;1.30;;;;;;;0.72;46.13;99960.25;5024595;28;20046;-55
2022/03/07 04:43:39;;;;;;;2.45;1.20;;;;;;;0.76;46.38;99972.34;5024710;28;20229;-54
2022/03/07 04:46:10;;;;;;;4.35;1.42;;;;;;;0.48;47.08;99928.97;5024661;28;20053;-54
2022/03/07 04:48:41;;;;;;;5.25;1.48;;;;;;;0.57;46.63;99934.25;5024603;28;20132;-55
2022/03/07 04:51:11;;;;;;;1.80;1.10;;;;;;;0.75;45.21;99964.56;5024647;28;20275;-54
2022/03/07 04:53:44;;;;;;;2.03;1.33;;;;;;;0.85;46.55;99972.50;5024819;28;20053;-54
2022/03/07 04:56:15;;;;;;;2.20;1.30;;;;;;;0.96;46.76;99964.09;5024440;28;20133;-55
2022/03/07 04:58:45;;;;;;;2.10;1.40;;;;;;;0.97;47.10;99965.84;5024466;28;20611;-54
2022/03/07 05:01:16;;;;;;;2.92;1.23;;;;;;;0.93;45.93;99971.78;5024488;28;20057;-54
2022/03/07 05:03:47;;;;;;;4.28;1.83;;;;;;;0.68;46.37;99963.63;5023423;28;20057;-54
2022/03/07 05:06:17;;;;;;;5.20;2.58;;;;;;;0.60;47.41;99975.44;5024013;28;20053;-54
2022/03/07 05:08:50;;;;;;;5.97;2.20;;;;;;;0.57;47.86;99970.25;5023858;28;20054;-53
2022/03/07 05:11:20;;;;;;;2.00;1.30;;;;;;;0.59;47.65;99963.44;5024517;28;20101;-51
2022/03/07 05:13:51;;;;;;;2.53;1.42;;;;;;;0.50;47.80;99968.38;5024018;28;20080;-52
2022/03/07 05:16:22;;;;;;;8.50;2.05;;;;;;;0.39;48.87;99961.34;5024393;28;20129;-53
2022/03/07 05:18:52;;;;;;;2.63;1.55;;;;;;;0.38;49.24;99976.75;5024250;28;20088;-53
2022/03/07 05:21:23;;;;;;;2.90;1.77;;;;;;;-0.07;50.52;99895.31;5024326;28;20061;-54
2022/03/07 05:23:55;;;;;;;3.90;1.73;;;;;;;0.31;50.04;99973.16;5024301;28;20348;-54
2022/03/07 05:26:26;;;;;;;3.22;1.40;;;;;;;0.08;50.38;99948.72;5024147;28;20339;-50
2022/03/07 05:28:56;;;;;;;3.75;1.63;;;;;;;0.20;50.84;99979.78;5024100;28;20060;-54
2022/03/07 05:31:27;;;;;;;3.03;1.40;;;;;;;0.09;51.09;99971.84;5023490;28;20053;-53
2022/03/07 05:33:58;;;;;;;2.10;1.60;;;;;;;0.05;51.45;99979.47;5024084;28;20112;-53
2022/03/07 05:36:28;;;;;;;5.53;1.67;;;;;;;-0.11;50.94;99979.13;5024062;28;20049;-54
2022/03/07 05:39:01;;;;;;;3.38;1.35;;;;;;;-0.10;51.07;99983.44;5023896;28;20190;-53
2022/03/07 05:41:31;;;;;;;3.30;1.55;;;;;;;-0.11;50.94;99979.13;5024282;28;20423;-52
2022/03/07 05:44:02;;;;;;;3.70;1.58;;;;;;;-0.10;50.62;99985.13;5023761;28;20053;-51
2022/03/07 05:46:33;;;;;;;2.25;1.40;;;;;;;-0.09;49.99;99986.88;5023867;28;20115;-53
2022/03/07 05:49:04;;;;;;;2.53;1.70;;;;;;;-0.09;50.29;99989.44;5023654;28;20125;-50
2022/03/07 05:51:35;;;;;;;1.40;1.30;;;;;;;-0.12;50.58;99992.81;5023604;28;20371;-53
2022/03/07 05:54:07;;;;;;;3.28;1.52;;;;;;;-0.23;50.27;99994.25;5023688;28;20856;-54
2022/03/07 05:56:38;;;;;;;12.38;4.00;;;;;;;-0.35;49.74;99999.13;5023858;28;20053;-53
2022/03/07 05:59:08;;;;;;;7.68;3.10;;;;;;;-0.48;50.34;99991.13;5023805;28;20065;-50
2022/03/07 06:01:39;;;;;;;11.40;4.72;;;;;;;-0.57;51.01;100008.03;5023891;28;20523;-54
2022/03/07 06:04:10;;;;;;;7.72;3.65;;;;;;;-0.60;52.06;100010.50;5023572;28;20117;-53
2022/03/07 06:06:41;;;;;;;6.95;3.22;;;;;;;-0.68;51.92;100010.31;5023888;28;20324;-53
2022/03/07 06:09:13;;;;;;;4.45;2.45;;;;;;;-0.75;52.22;100013.53;5023649;28;20233;-53
2022/03/07 06:11:44;;;;;;;9.55;4.00;;;;;;;-0.81;52.16;100009.13;5023719;28;20121;-53
2022/03/07 06:14:14;;;;;;;6.25;2.75;;;;;;;-0.87;52.25;100014.97;5025010;28;20133;-53
2022/03/07 06:16:45;;;;;;;6.05;2.78;;;;;;;-0.91;52.92;100018.28;5026904;28;20164;-53
2022/03/07 06:19:16;;;;;;;4.68;2.50;;;;;;;-1.00;52.28;100007.81;5027665;28;20054;-52
2022/03/07 06:21:47;;;;;;;5.32;2.90;;;;;;;-1.08;52.50;100014.41;5027406;28;20045;-53
2022/03/07 06:24:19;;;;;;;3.72;2.20;;;;;;;-1.65;52.68;99925.75;5027203;28;20069;-52
2022/03/07 06:26:50;;;;;;;6.20;3.00;;;;;;;-1.04;53.24;100021.38;5027200;28;20053;-50
2022/03/07 06:29:24;;;;;;;7.50;3.22;;;;;;;-1.03;53.61;100023.09;5027014;28;20057;-53
2022/03/07 06:31:55;;;;;;;6.70;2.40;;;;;;;-1.03;53.50;100032.50;5027159;28;20422;-50
2022/03/07 06:34:25;;;;;;;4.53;1.88;;;;;;;-1.06;53.43;100028.16;5026763;28;20081;-51
2022/03/07 06:36:56;;;;;;;3.20;1.73;;;;;;;-1.04;54.23;100047.00;5027017;28;20363;-53
2022/03/07 06:39:29;;;;;;;9.45;4.13;;;;;;;-1.03;54.76;100041.03;5026448;28;20083;-50
2022/03/07 06:41:59;;;;;;;8.98;5.13;;;;;;;-1.12;54.55;100048.50;5026957;28;20121;-54
2022/03/07 06:44:30;;;;;;;6.53;2.40;;;;;;;-1.15;54.92;100050.97;5026804;28;20058;-52
2022/03/07 06:47:01;;;;;;;3.42;2.20;;;;;;;-1.18;55.54;100056.03;5026508;28;20084;-53
2022/03/07 06:49:31;;;;;;;6.38;3.25;;;;;;;-1.50;55.32;100014.97;5026860;28;20137;-50
2022/03/07 06:52:02;;;;;;;7.88;3.60;;;;;;;-1.28;55.64;100046.34;5026141;28;20109;-52
2022/03/07 06:54:35;;;;;;;11.93;6.57;;;;;;;-1.31;56.08;100058.25;5026864;28;20116;-53
2022/03/07 06:57:06;;;;;;;11.90;6.40;;;;;;;-1.34;56.38;100058.16;5026809;28;20088;-52
2022/03/07 06:59:36;;;;;;;9.80;3.80;;;;;;;-1.37;56.53;100058.09;5026574;28;20104;-53
2022/03/07 07:02:07;;;;;;;5.63;2.70;;;;;;;-1.47;56.57;100060.31;5026281;28;20351;-51
2022/03/07 07:04:38;;;;;;;7.63;2.72;;;;;;;-1.53;57.11;100071.28;5026509;28;20053;-53
2022/03/07 07:07:09;;;;;;;7.13;2.17;;;;;;;-1.60;57.10;100069.34;5026149;28;20050;-52
2022/03/07 07:09:42;;;;;;;4.82;2.25;;;;;;;-1.68;57.22;100066.56;5026438;28;20087;-54
2022/03/07 07:12:13;;;;;;;6.45;2.63;;;;;;;-1.76;57.30;100058.66;5026148;28;20323;-52
2022/03/07 07:14:43;;;;;;;4.72;1.83;;;;;;;-1.81;57.41;100074.72;5026338;28;20081;-51
2022/03/07 07:17:14;;;;;;;5.53;2.40;;;;;;;-1.83;57.65;100077.22;5025867;28;20071;-51
2022/03/07 07:19:45;;;;;;;6.95;2.33;;;;;;;-1.91;57.77;100083.81;5026321;28;20409;-51
2022/03/07 07:22:16;;;;;;;6.80;2.45;;;;;;;-1.95;57.92;100076.84;5025990;28;20319;-53
2022/03/07 07:24:48;;;;;;;6.35;2.53;;;;;;;-2.09;58.59;100062.75;5025932;28;20053;-50
2022/03/07 07:27:20;;;;;;;5.57;3.13;;;;;;;-1.92;59.10;100087.19;5025233;28;20382;-51
2022/03/07 07:29:50;;;;;;;6.00;2.50;;;;;;;-1.94;58.93;100093.97;5025421;28;20045;-53
2022/03/07 07:32:21;;;;;;;5.47;2.70;;;;;;;-2.02;59.24;100090.25;5026102;28;20056;-50
2022/03/07 07:34:52;;;;;;;10.10;3.50;;;;;;;-2.04;58.68;100086.81;5025721;28;20077;-52
2022/03/07 07:37:23;;;;;;;5.43;3.22;;;;;;;-2.08;58.74;100093.50;5026116;28;20100;-50
2022/03/07 07:39:55;;;;;;;10.13;3.60;;;;;;;-2.11;58.78;100090.00;5026138;28;20049;-53
2022/03/07 07:42:26;;;;;;;9.30;3.70;;;;;;;-2.15;58.80;100093.28;5026113;28;20096;-53
2022/03/07 07:44:56;;;;;;;8.45;3.25;;;;;;;-2.54;58.66;100052.78;5025635;28;20085;-53
2022/03/07 07:47:27;;;;;;;5.25;2.95;;;;;;;-2.32;58.56;100101.28;5025450;28;20356;-49
2022/03/07 07:49:58;;;;;;;6.07;3.30;;;;;;;-2.84;58.79;100027.94;5025628;28;20289;-49
2022/03/07 07:52:28;;;;;;;7.78;2.85;;;;;;;-2.51;59.11;100101.50;5024715;28;20254;-52
2022/03/07 07:55:02;;;;;;;8.20;2.42;;;;;;;-2.64;59.15;100098.53;5025241;28;20126;-50
2022/03/07 07:57:33;;;;;;;5.47;2.75;;;;;;;-3.07;59.20;100056.13;5025583;28;20045;-50
2022/03/07 08:00:05;;;;;;;6.63;2.85;;;;;;;-2.93;59.65;100094.09;5025169;28;20339;-51
2022/03/07 08:02:49;;;;;;;7.45;2.70;;;;;;;-2.97;60.10;100112.69;5025437;28;20057;-51
2022/03/07 08:05:20;;;;;;;7.75;3.28;;;;;;;-3.09;60.04;100114.00;5024949;28;20302;-52
2022/03/07 08:07:52;;;;;;;9.45;3.78;;;;;;;-3.28;60.51;100111.59;5025079;28;20251;-49
2022/03/07 08:10:24;;;;;;;6.82;3.25;;;;;;;-3.67;60.79;100059.88;5024311;28;20056;-52
2022/03/07 08:12:55;;;;;;;10.65;5.20;;;;;;;-3.51;60.82;100126.06;5024489;28;20081;-53
2022/03/07 08:15:26;;;;;;;11.43;5.30;;;;;;;-3.71;61.15;100125.31;5024940;28;20682;-51
2022/03/07 08:17:57;;;;;;;10.45;5.10;;;;;;;-4.46;61.41;100026.25;5024083;28;20080;-51
2022/03/07 08:20:28;;;;;;;7.68;3.78;;;;;;;-3.86;62.12;100129.81;5024321;28;20068;-51
2022/03/07 08:22:59;;;;;;;14.48;5.75;;;;;;;-3.95;62.43;100130.31;5023993;28;20355;-51
2022/03/07 08:25:32;;;;;;;12.70;5.40;;;;;;;-4.06;62.65;100131.56;5024416;28;20247;-51
2022/03/07 08:28:04;;;;;;;12.13;5.20;;;;;;;-4.13;62.96;100151.72;5023515;28;20113;-53
2022/03/07 08:30:34;;;;;;;11.70;4.40;;;;;;;-4.20;63.10;100138.66;5023919;28;20072;-50
2022/03/07 08:33:05;;;;;;;9.52;4.63;;;;;;;-4.23;63.42;100143.66;5024851;28;20589;-54
2022/03/07 08:35:36;;;;;;;14.40;5.18;;;;;;;-4.32;63.62;100143.25;5025020;28;20052;-52
2022/03/07 08:38:07;;;;;;;13.13;4.95;;;;;;;-4.38;63.76;100146.44;5024177;28;20454;-50
2022/03/07 08:40:39;;;;;;;11.90;5.00;;;;;;;-4.43;63.95;100153.88;5025021;28;20336;-51
2022/03/07 08:43:15;;;;;;;12.13;5.95;;;;;;;-4.58;64.00;100150.69;5025243;28;20061;-51
2022/03/07 08:45:46;;;;;;;28.48;11.65;;;;;;;-4.69;64.26;100157.00;5024501;28;20281;-53
2022/03/07 08:48:25;;;;;;;20.75;9.95;;;;;;;-4.92;64.59;100141.59;5024973;28;20045;-53
2022/03/07 08:50:56;;;;;;;122.47;54.15;;;;;;;-5.06;64.93;100155.41;5024880;28;20045;-52
2022/03/07 08:53:27;;;;;;;55.83;25.27;;;;;;;-5.08;65.15;100167.22;5023737;28;20046;-50
2022/03/07 08:55:59;;;;;;;26.63;11.35;;;;;;;-5.38;65.37;100136.16;5024442;28;20069;-50
2022/03/07 08:58:51;;;;;;;16.75;6.03;;;;;;;-5.34;65.80;100184.75;5025169;28;20256;-51
2022/03/07 09:01:21;;;;;;;13.13;5.35;;;;;;;-5.42;66.17;100176.75;5024209;28;20092;-51
2022/03/07 09:03:52;;;;;;;10.43;5.93;;;;;;;-5.49;66.59;100179.81;5024678;28;20046;-52
2022/03/07 09:06:23;;;;;;;61.38;21.58;;;;;;;-5.60;66.34;100180.97;5024947;28;20363;-53
2022/03/07 09:08:54;;;;;;;61.53;21.17;;;;;;;-5.67;66.23;100189.97;5024343;28;20112;-51
2022/03/07 09:11:46;;;;;;;61.00;22.42;;;;;;;-5.79;66.10;100198.72;5024301;28;20048;-49
2022/03/07 09:14:18;;;;;;;51.40;17.08;;;;;;;-5.94;66.18;100189.59;5024369;28;20065;-53
2022/03/07 09:16:48;;;;;;;20.15;8.65;;;;;;;-6.05;66.79;100189.88;5023927;28;20068;-52
2022/03/07 09:19:20;;;;;;;35.55;13.68;;;;;;;-6.11;67.05;100201.50;5024192;28;20057;-49
2022/03/07 09:21:50;;;;;;;29.33;9.45;;;;;;;-6.20;66.83;100206.13;5024142;28;20051;-49
2022/03/07 09:24:22;;;;;;;43.28;14.93;;;;;;;-6.20;67.13;100201.03;5024431;28;20060;-50
2022/03/07 09:26:54;;;;;;;271.13;78.68;;;;;;;-6.30;67.07;100209.00;5024768;28;20065;-53
2022/03/07 09:29:26;;;;;;;192.73;60.05;;;;;;;-6.32;67.64;100205.50;5024818;28;20328;-50
2022/03/07 09:32:02;;;;;;;135.50;49.88;;;;;;;-6.51;67.22;100209.66;5023576;28;20240;-52
2022/03/07 09:34:33;;;;;;;201.63;61.25;;;;;;;-6.65;67.73;100210.63;5024110;28;20236;-51
2022/03/07 09:37:06;;;;;;;139.57;40.05;;;;;;;-6.90;67.59;100177.13;5024285;28;20053;-52
2022/03/07 09:39:37;;;;;;;195.32;49.42;;;;;;;-6.76;67.67;100211.75;5023823;28;20053;-51
2022/03/07 09:42:09;;;;;;;191.52;49.55;;;;;;;-6.79;67.70;100221.75;5024082;28;20109;-51
2022/03/07 09:44:40;;;;;;;202.75;52.83;;;;;;;-6.88;67.82;100221.28;5024355;28;20045;-50
2022/03/07 09:47:12;;;;;;;259.83;68.28;;;;;;;-6.98;67.94;100215.69;5023656;28;20053;-51
2022/03/07 09:49:43;;;;;;;257.13;66.10;;;;;;;-7.04;67.72;100225.56;5026163;28;20132;-51
2022/03/07 09:52:14;;;;;;;201.40;56.85;;;;;;;-7.12;67.76;100221.72;5027934;28;20120;-53
2022/03/07 09:54:45;;;;;;;190.13;55.78;;;;;;;-7.12;67.76;100221.72;5027768;28;20046;-53
2022/03/07 09:57:17;;;;;;;194.00;55.72;;;;;;;-7.14;67.66;100228.38;5027738;28;20076;-55
2022/03/07 09:59:48;;;;;;;178.38;48.15;;;;;;;-7.25;67.11;100232.00;5027549;28;20053;-50
2022/03/07 10:02:24;;;;;;;123.43;40.08;;;;;;;-7.40;67.09;100232.91;5027388;28;20120;-51
2022/03/07 10:05:01;;;;;;;120.38;43.95;;;;;;;-7.57;67.78;100231.13;5027612;28;20054;-52
2022/03/07 10:07:31;;;;;;;218.48;92.55;;;;;;;-7.69;68.21;100230.44;5027076;28;20096;-51
2022/03/07 10:10:08;;;;;;;200.13;82.07;;;;;;;-7.85;68.17;100239.72;5027506;28;20053;-51
2022/03/07 10:12:49;;;;;;;217.27;92.45;;;;;;;-7.92;68.92;100222.41;5027327;28;20118;-51
2022/03/07 10:15:22;;;;;;;267.38;126.60;;;;;;;-8.38;68.85;100158.97;5027224;28;20050;-51
2022/03/07 10:17:54;;;;;;;283.00;134.32;;;;;;;-8.21;69.73;100207.19;5027078;28;20244;-51
2022/03/07 10:20:26;;;;;;;192.40;94.60;;;;;;;-8.29;70.18;100205.09;5027636;28;20077;-52
2022/03/07 10:22:59;;;;;;;131.65;53.70;;;;;;;-8.20;70.85;100234.31;5027822;28;20081;-52
2022/03/07 10:25:38;;;;;;;156.90;77.53;;;;;;;-8.19;71.03;100246.19;5027541;28;20041;-51
2022/03/07 10:28:10;;;;;;;120.65;61.03;;;;;;;-8.24;71.25;100248.44;5026955;28;20311;-50
2022/03/07 10:30:41;;;;;;;46.33;24.27;;;;;;;-8.22;71.24;100246.00;5026884;28;20042;-53
2022/03/07 10:33:13;;;;;;;36.65;18.48;;;;;;;-8.28;71.05;100242.34;5027219;28;20084;-49
2022/03/07 10:35:45;;;;;;;49.85;21.80;;;;;;;-8.38;71.52;100242.59;5026918;28;20116;-51
2022/03/07 10:38:20;;;;;;;89.53;30.63;;;;;;;-8.31;72.03;100247.25;5027050;28;20085;-50
2022/03/07 10:40:56;;;;;;;86.05;30.55;;;;;;;-8.36;72.58;100265.47;5027218;28;20054;-50
2022/03/07 10:43:29;;;;;;;72.55;27.33;;;;;;;-8.39;72.99;100257.72;5026748;28;20068;-51
2022/03/07 10:46:02;;;;;;;56.22;21.77;;;;;;;-8.50;72.56;100269.78;5026798;28;20053;-50
2022/03/07 10:48:43;;;;;;;47.40;20.10;;;;;;;-8.65;72.98;100261.25;5026261;28;20050;-51
2022/03/07 10:51:20;;;;;;;18.58;10.23;;;;;;;-8.71;73.00;100260.13;5026602;28;20063;-50
2022/03/07 10:53:51;;;;;;;21.88;11.50;;;;;;;-8.80;73.46;100254.47;5027082;28;20069;-49
2022/03/07 10:56:23;;;;;;;49.15;24.67;;;;;;;-9.01;74.17;100212.66;5026709;28;20295;-50
2022/03/07 10:58:57;;;;;;;17.63;11.40;;;;;;;-9.02;73.75;100205.88;5026693;28;20046;-49
2022/03/07 11:01:31;;;;;;;11.48;7.65;;;;;;;-9.26;73.61;100165.66;5027079;28;20344;-52
2022/03/07 11:04:02;;;;;;;8.77;4.85;;;;;;;-8.78;73.27;100249.53;5026537;28;20076;-54
2022/03/07 11:06:33;;;;;;;14.18;5.75;;;;;;;-8.81;73.87;100247.69;5026716;28;20060;-52
2022/03/07 11:09:04;;;;;;;13.75;6.68;;;;;;;-8.86;74.04;100246.53;5026052;28;20069;-54
2022/03/07 11:11:35;;;;;;;7.88;3.83;;;;;;;-8.92;74.65;100254.59;5026093;28;20303;-54
2022/03/07 11:14:08;;;;;;;10.00;4.82;;;;;;;-8.91;74.39;100265.59;5026218;28;20058;-51
2022/03/07 11:16:40;;;;;;;9.40;4.65;;;;;;;-8.86;74.57;100266.78;5025949;28;20050;-51
2022/03/07 11:19:12;;;;;;;10.75;4.80;;;;;;;-9.06;74.17;100239.34;5026919;28;20053;-50
2022/03/07 11:21:45;;;;;;;9.60;4.43;;;;;;;-8.90;74.17;100270.78;5026035;28;20335;-50
2022/03/07 11:24:16;;;;;;;5.78;3.05;;;;;;;-8.81;74.18;100267.94;5026104;28;20231;-49
2022/03/07 11:26:48;;;;;;;3.38;2.60;;;;;;;-8.77;73.73;100269.84;5026134;28;20386;-52
2022/03/07 11:29:20;;;;;;;10.88;3.65;;;;;;;-8.80;73.72;100279.81;5025983;28;20143;-49
2022/03/07 11:32:03;;;;;;;61.20;19.85;;;;;;;-8.92;73.67;100274.00;5025783;28;20115;-52
2022/03/07 11:34:34;;;;;;;70.45;23.73;;;;;;;-9.74;74.04;100159.28;5025642;28;20398;-52
2022/03/07 11:37:16;;;;;;;23.70;10.32;;;;;;;-9.28;73.81;100252.34;5025850;28;20053;-50
2022/03/07 11:39:47;;;;;;;15.27;6.88;;;;;;;-9.20;74.16;100277.34;5025175;28;20062;-52
2022/03/07 11:42:20;;;;;;;5.30;3.45;;;;;;;-9.30;74.08;100284.28;5026184;28;20045;-52
2022/03/07 11:44:52;;;;;;;5.25;3.15;;;;;;;-9.55;74.45;100248.19;5025877;28;20050;-50